Saint Joseph, IL

4:31 AM CDT on September 16, 2014 (GMT -0500)
Danville | Change Station
CLOSE
Current Station
Airport
Location: Danville,
Elevation: 696 ft
Nearby Weather Stations

Elev 696 ft 40.20 °N, 87.59 °W | Updated 16 minutes ago

Overcast
Overcast
54 °F
Feels Like 54 °F
N
6
Wind Variable Wind from North

Today
High -- | Low -- °F
--% Chance of Precip.
Yesterday
High -- | Low -- °F
Precip. -- in
6:34 AM 6:59 PM
Waning Gibbous, 47% visible
Pressure 30.15 in
Visibility 3.0 miles
Clouds Overcast 500 ft
Dew Point 53 °F
Humidity 97%
Rainfall 0.00 in
Snow Depth Not available.
UV 0 out of 12
Pollen 4.90 out of 12
Air Quality Not available.
Flu Activity Not available.
METAR KDNV 160915Z AUTO 36005KT 3SM BR OVC005 12/12 A3015 RMK AO2 T01200116

More Conditions Fewer Conditions

Pressure 30.15 in
Visibility 3.0 miles
Clouds Overcast 500 ft
Dew Point 53 °F
Humidity 97%
Rainfall 0.00 in
Snow Depth Not available.
UV 0 out of 12
Pollen 4.90 out of 12
Air Quality Not available.
Flu Activity Not available.
METAR KDNV 160915Z AUTO 36005KT 3SM BR OVC005 12/12 A3015 RMK AO2 T01200116

More Conditions Fewer Conditions

10-Day Weather Forecast

Almanac

Astronomy

Sep. 16, 2014 Rise Set
Actual Time 6:34 AM CDT 6:59 PM CDT
Civil Twilight 6:06 AM CDT 7:26 PM CDT
Nautical Twilight 5:34 AM CDT 7:58 PM CDT
Astronomical Twilight 5:02 AM CDT 8:30 PM CDT
Moon No Moon Rise 2:22 PM CDT
Length of Visible Light 13h 19m
Length of Day
12h 25m
Tomorrow will be 2m 37s shorter.
Waning Gibbous, 47% of the Moon is Illuminated
Today
Waning Gibbous
Sep 24
New
Oct 1
First Quarter
Oct 8
Full
Oct 15
Last Quarter

Today's Extremes

State Highs State Lows

Community

WunderPhotos

Upload Photos

1,753,714 photos uploaded!

WunderBlogs® & News

Nearby

Snow Depth

Station Depth Elevation
No new snow has been reported.

Earthquake Activity

City Distance Mag. Time & Date
No recent earthquake activity has been reported nearby.
Minimum magnitude displayed is 2.5.

Coastal Water Temperatures

Place Temperature
No Stations Reporting

Nearby Weather Stations